createdAt,value
2018-04-12T00:00:39.714Z,16.38
2018-04-12T00:01:20.209Z,16.34
2018-04-12T00:02:00.699Z,16.45
2018-04-12T00:02:41.213Z,16.35
2018-04-12T00:03:21.691Z,16.39
2018-04-12T00:04:02.245Z,16.41
2018-04-12T00:04:42.708Z,16.28
2018-04-12T00:05:23.224Z,16.3
2018-04-12T00:06:03.756Z,16.28
2018-04-12T00:06:44.265Z,16.34
2018-04-12T00:07:24.786Z,16.31
2018-04-12T00:08:05.309Z,16.38
2018-04-12T00:08:45.831Z,16.41
2018-04-12T00:09:26.339Z,16.33
2018-04-12T00:10:06.856Z,16.39
2018-04-12T00:10:47.371Z,16.43
2018-04-12T00:11:27.885Z,16.42
2018-04-12T00:12:08.418Z,16.42
2018-04-12T00:12:48.918Z,16.48
2018-04-12T00:13:29.439Z,16.38
2018-04-12T00:14:09.949Z,16.3
2018-04-12T00:14:50.457Z,16.41
2018-04-12T00:15:30.973Z,16.42
2018-04-12T00:16:11.492Z,16.39
2018-04-12T00:16:52.007Z,16.3
2018-04-12T00:17:32.514Z,16.41
2018-04-12T00:18:13.039Z,16.31
2018-04-12T00:18:53.558Z,16.39
2018-04-12T00:19:34.080Z,16.39
2018-04-12T00:20:14.588Z,16.3
2018-04-12T00:20:55.120Z,16.42
2018-04-12T00:21:35.652Z,16.41
2018-04-12T00:22:16.191Z,16.39
2018-04-12T00:22:56.759Z,16.43
2018-04-12T00:23:37.280Z,16.49
2018-04-12T00:24:17.801Z,16.46
2018-04-12T00:24:58.314Z,16.53
2018-04-12T00:25:38.839Z,16.38
2018-04-12T00:26:19.356Z,16.42
2018-04-12T00:26:59.900Z,16.45
2018-04-12T00:27:40.404Z,16.5
2018-04-12T00:28:20.931Z,16.5
2018-04-12T00:29:01.446Z,16.49
2018-04-12T00:29:41.963Z,16.52
2018-04-12T00:30:22.512Z,16.49
2018-04-12T00:31:03.020Z,16.46
2018-04-12T00:31:43.566Z,16.46
2018-04-12T00:32:24.080Z,16.49
2018-04-12T00:33:04.591Z,16.52
2018-04-12T00:33:45.113Z,16.42
2018-04-12T00:34:25.635Z,16.43
2018-04-12T00:35:06.155Z,16.49
2018-04-12T00:35:46.664Z,16.58
2018-04-12T00:36:27.181Z,16.42
2018-04-12T00:37:07.699Z,16.48
2018-04-12T00:37:48.221Z,16.42
2018-04-12T00:38:28.733Z,16.43
2018-04-12T00:39:09.246Z,16.45
2018-04-12T00:39:49.757Z,16.39
2018-04-12T00:40:30.300Z,16.43
2018-04-12T00:41:10.800Z,16.45
2018-04-12T00:41:51.316Z,16.42
2018-04-12T00:42:31.844Z,16.25
2018-04-12T00:43:12.385Z,16.3
2018-04-12T00:43:52.902Z,16.42
2018-04-12T00:44:33.421Z,16.39
2018-04-12T00:45:13.947Z,16.41
2018-04-12T00:45:54.458Z,16.42
2018-04-12T00:46:34.980Z,16.28
2018-04-12T00:47:15.495Z,16.31
2018-04-12T00:47:56.017Z,16.25
2018-04-12T00:48:36.518Z,16.35
2018-04-12T00:49:17.061Z,16.24
2018-04-12T00:49:57.572Z,16.17
2018-04-12T00:50:38.081Z,16.24
2018-04-12T00:51:18.590Z,16.12
2018-04-12T00:51:59.105Z,16.14
2018-04-12T00:52:39.614Z,16.24
2018-04-12T00:53:20.133Z,16.2
2018-04-12T00:54:00.651Z,16.04
2018-04-12T00:54:41.174Z,16.09
2018-04-12T00:55:21.686Z,16.11
2018-04-12T00:56:02.197Z,16.17
2018-04-12T00:56:42.709Z,16.2
2018-04-12T00:57:23.235Z,16.25
2018-04-12T00:58:03.749Z,16.17
2018-04-12T00:58:44.256Z,16.23
2018-04-12T00:59:24.781Z,16.17
2018-04-12T01:00:05.295Z,16.05
2018-04-12T01:00:45.802Z,16.21
2018-04-12T01:01:26.305Z,16.21
2018-04-12T01:02:06.821Z,16.09
2018-04-12T01:02:47.330Z,16.07
2018-04-12T01:03:27.858Z,16.08
2018-04-12T01:04:08.390Z,16.07
2018-04-12T01:04:48.930Z,16.09
2018-04-12T01:05:29.439Z,16.2
2018-04-12T01:06:09.966Z,16.12
2018-04-12T01:06:50.476Z,16.15
2018-04-12T01:07:30.997Z,16.11
2018-04-12T01:08:11.508Z,16.07
2018-04-12T01:08:52.025Z,16.08
2018-04-12T01:09:32.551Z,16.09
2018-04-12T01:10:13.081Z,16.24
2018-04-12T01:10:53.596Z,16.11
2018-04-12T01:11:34.108Z,16.14
2018-04-12T01:12:14.631Z,16.09
2018-04-12T01:12:55.154Z,16.11
2018-04-12T01:13:35.664Z,16.11
2018-04-12T01:14:16.183Z,16.04
2018-04-12T01:14:56.701Z,16.04
2018-04-12T01:15:37.201Z,16.09
2018-04-12T01:16:17.724Z,15.94
2018-04-12T01:16:58.248Z,16.09
2018-04-12T01:17:38.762Z,16.04
2018-04-12T01:18:19.269Z,16.14
2018-04-12T01:18:59.779Z,16.05
2018-04-12T01:19:40.306Z,16.01
2018-04-12T01:20:20.828Z,16.02
2018-04-12T01:21:01.340Z,16
2018-04-12T01:21:41.853Z,15.94
2018-04-12T01:22:22.366Z,15.92
2018-04-12T01:23:02.898Z,15.84
2018-04-12T01:23:43.414Z,15.82
2018-04-12T01:24:23.941Z,15.82
2018-04-12T01:25:04.446Z,15.74
2018-04-12T01:25:44.960Z,15.87
2018-04-12T01:26:25.467Z,15.75
2018-04-12T01:27:05.974Z,15.83
2018-04-12T01:27:46.492Z,15.75
2018-04-12T01:28:27.000Z,15.82
2018-04-12T01:29:07.520Z,15.78
2018-04-12T01:29:48.054Z,15.75
2018-04-12T01:30:28.566Z,15.76
2018-04-12T01:31:09.085Z,15.74
2018-04-12T01:31:49.609Z,15.84
2018-04-12T01:32:30.124Z,15.78
2018-04-12T01:33:10.648Z,15.89
2018-04-12T01:33:51.163Z,15.86
2018-04-12T01:34:31.675Z,15.76
2018-04-12T01:35:12.186Z,15.76
2018-04-12T01:35:52.700Z,15.75
2018-04-12T01:36:33.212Z,15.75
2018-04-12T01:37:13.739Z,15.74
2018-04-12T01:37:54.252Z,15.8
2018-04-12T01:38:34.765Z,15.87
2018-04-12T01:39:15.282Z,15.76
2018-04-12T01:39:55.798Z,15.76
2018-04-12T01:40:36.332Z,15.72
2018-04-12T01:41:16.844Z,15.64
2018-04-12T01:41:57.362Z,15.64
2018-04-12T01:42:37.877Z,15.71
2018-04-12T01:43:18.388Z,15.68
2018-04-12T01:43:58.911Z,15.72
2018-04-12T01:44:39.423Z,15.74
2018-04-12T01:45:19.940Z,15.82
2018-04-12T01:46:00.456Z,15.72
2018-04-12T01:46:40.963Z,15.74
2018-04-12T01:47:21.482Z,15.72
2018-04-12T01:48:02.005Z,15.74
2018-04-12T01:48:42.528Z,15.74
2018-04-12T01:49:23.041Z,15.76
2018-04-12T01:50:03.558Z,15.5
2018-04-12T01:50:44.075Z,15.71
2018-04-12T01:51:24.591Z,15.64
2018-04-12T01:52:05.117Z,15.6
2018-04-12T01:52:45.636Z,15.69
2018-04-12T01:53:26.160Z,15.68
2018-04-12T01:54:06.752Z,15.6
2018-04-12T01:54:47.189Z,15.44
2018-04-12T01:55:27.706Z,15.54
2018-04-12T01:56:08.223Z,15.5
2018-04-12T01:56:48.742Z,15.6
2018-04-12T01:57:29.260Z,15.51
2018-04-12T01:58:09.778Z,15.59
2018-04-12T01:58:50.293Z,15.68
2018-04-12T01:59:30.805Z,15.71
2018-04-12T02:00:11.319Z,15.62
2018-04-12T02:00:51.843Z,15.57
2018-04-12T02:01:32.377Z,15.57
2018-04-12T02:02:12.893Z,15.47
2018-04-12T02:02:53.406Z,15.56
2018-04-12T02:03:33.922Z,15.54
2018-04-12T02:04:14.443Z,15.51
2018-04-12T02:04:54.958Z,15.59
2018-04-12T02:05:35.479Z,15.57
2018-04-12T02:06:15.996Z,15.56
2018-04-12T02:06:56.519Z,15.51
2018-04-12T02:07:37.030Z,15.54
2018-04-12T02:08:17.543Z,15.64
2018-04-12T02:08:58.065Z,15.5
2018-04-12T02:09:38.588Z,15.53
2018-04-12T02:10:19.115Z,15.54
2018-04-12T02:10:59.636Z,15.56
2018-04-12T02:11:40.170Z,15.49
2018-04-12T02:12:20.679Z,15.64
2018-04-12T02:13:01.192Z,15.49
2018-04-12T02:13:41.715Z,15.46
2018-04-12T02:14:22.229Z,15.56
2018-04-12T02:15:02.747Z,15.57
2018-04-12T02:15:43.523Z,15.59
2018-04-12T02:16:23.795Z,15.5
2018-04-12T02:17:04.318Z,15.57
2018-04-12T02:17:44.839Z,15.53
2018-04-12T02:18:25.372Z,15.56
2018-04-12T02:19:05.884Z,15.57
2018-04-12T02:19:46.430Z,15.5
2018-04-12T02:20:26.942Z,15.5
2018-04-12T02:21:07.461Z,15.47
2018-04-12T02:21:47.987Z,15.57
2018-04-12T02:22:28.508Z,15.6
2018-04-12T02:23:09.031Z,15.56
2018-04-12T02:23:49.564Z,15.5
2018-04-12T02:24:30.065Z,15.51
2018-04-12T02:25:10.587Z,15.6
2018-04-12T02:25:51.107Z,15.57
2018-04-12T02:26:31.640Z,15.57
2018-04-12T02:27:12.153Z,15.47
2018-04-12T02:27:52.662Z,15.53
2018-04-12T02:28:33.174Z,15.46
2018-04-12T02:29:13.693Z,15.57
2018-04-12T02:29:54.209Z,15.59
2018-04-12T02:30:34.729Z,15.6
2018-04-12T02:31:15.249Z,15.54
2018-04-12T02:31:55.764Z,15.57
2018-04-12T02:32:36.273Z,15.54
2018-04-12T02:33:16.801Z,15.53
2018-04-12T02:33:57.306Z,15.39
2018-04-12T02:34:37.829Z,15.5
2018-04-12T02:35:18.340Z,15.38
2018-04-12T02:35:58.860Z,15.36
2018-04-12T02:36:39.383Z,15.43
2018-04-12T02:37:19.897Z,15.36
2018-04-12T02:38:00.431Z,15.41
2018-04-12T02:38:40.941Z,15.35
2018-04-12T02:39:21.458Z,15.35
2018-04-12T02:40:01.972Z,15.39
2018-04-12T02:40:42.501Z,15.36
2018-04-12T02:41:23.001Z,15.43
2018-04-12T02:42:03.532Z,15.39
2018-04-12T02:42:44.048Z,15.32
2018-04-12T02:43:24.581Z,15.36
2018-04-12T02:44:05.100Z,15.21
2018-04-12T02:44:45.631Z,15.25
2018-04-12T02:45:26.148Z,15.19
2018-04-12T02:46:06.668Z,15.31
2018-04-12T02:46:47.175Z,15.25
2018-04-12T02:47:27.687Z,15.31
2018-04-12T02:48:08.203Z,15.44
2018-04-12T02:48:48.712Z,15.41
2018-04-12T02:49:29.240Z,15.39
2018-04-12T02:50:09.764Z,15.43
2018-04-12T02:50:50.270Z,15.36
2018-04-12T02:51:30.790Z,15.35
2018-04-12T02:52:11.307Z,15.35
2018-04-12T02:52:51.825Z,15.43
2018-04-12T02:53:32.339Z,15.35
2018-04-12T02:54:12.854Z,15.32
2018-04-12T02:54:53.363Z,15.38
2018-04-12T02:55:33.877Z,15.38
2018-04-12T02:56:14.395Z,15.38
2018-04-12T02:56:54.920Z,15.31
2018-04-12T02:57:35.450Z,15.34
2018-04-12T02:58:15.959Z,15.41
2018-04-12T02:58:56.472Z,15.44
2018-04-12T02:59:36.990Z,15.31
2018-04-12T03:00:17.511Z,15.36
2018-04-12T03:02:07.292Z,15.39
2018-04-12T03:02:47.814Z,15.41
2018-04-12T03:03:28.332Z,15.41
2018-04-12T03:04:08.843Z,15.47
2018-04-12T03:04:49.358Z,15.36
2018-04-12T03:05:29.873Z,15.41
2018-04-12T03:06:10.378Z,15.39
2018-04-12T03:06:50.894Z,15.36
2018-04-12T03:07:31.420Z,15.44
2018-04-12T03:08:11.929Z,15.41
2018-04-12T03:08:52.450Z,15.39
2018-04-12T03:09:32.996Z,15.46
2018-04-12T03:10:13.487Z,15.36
2018-04-12T03:10:53.994Z,15.39
2018-04-12T03:11:34.504Z,15.38
2018-04-12T03:12:15.030Z,15.43
2018-04-12T03:12:55.574Z,15.41
2018-04-12T03:13:36.099Z,15.39
2018-04-12T03:14:16.620Z,15.34
2018-04-12T03:14:57.146Z,15.41
2018-04-12T03:15:37.657Z,15.43
2018-04-12T03:16:18.188Z,15.44
2018-04-12T03:16:58.707Z,15.35
2018-04-12T03:17:39.223Z,15.38
2018-04-12T03:18:19.753Z,15.41
2018-04-12T03:19:00.263Z,15.46
2018-04-12T03:19:40.774Z,15.43
2018-04-12T03:20:21.289Z,15.47
2018-04-12T03:21:01.826Z,15.36
2018-04-12T03:21:42.324Z,15.35
2018-04-12T03:22:22.835Z,15.28
2018-04-12T03:23:03.358Z,15.28
2018-04-12T03:23:43.924Z,15.25
2018-04-12T03:24:24.438Z,15.27
2018-04-12T03:25:04.910Z,15.29
2018-04-12T03:25:45.421Z,15.16
2018-04-12T03:26:25.936Z,15.19
2018-04-12T03:27:06.476Z,15.19
2018-04-12T03:27:46.988Z,15.2
2018-04-12T03:28:27.508Z,15.17
2018-04-12T03:29:08.026Z,15.21
2018-04-12T03:29:48.589Z,15.13
2018-04-12T03:30:29.055Z,15.25
2018-04-12T03:31:09.566Z,15.17
2018-04-12T03:31:50.084Z,15.21
2018-04-12T03:32:30.588Z,15.17
2018-04-12T03:33:11.124Z,15.06
2018-04-12T03:33:51.619Z,15.06
2018-04-12T03:34:32.140Z,15.13
2018-04-12T03:35:12.670Z,15.11
2018-04-12T03:35:53.204Z,15.07
2018-04-12T03:36:33.746Z,15.09
2018-04-12T03:37:14.279Z,15.11
2018-04-12T03:37:54.776Z,15.11
2018-04-12T03:38:35.290Z,15.14
2018-04-12T03:39:15.834Z,15.19
2018-04-12T03:39:56.352Z,15.16
2018-04-12T03:40:36.866Z,15.06
2018-04-12T03:41:17.383Z,15.03
2018-04-12T03:41:57.902Z,15.1
2018-04-12T03:42:38.430Z,15.06
2018-04-12T03:43:18.945Z,15.02
2018-04-12T03:43:59.546Z,15.13
2018-04-12T03:44:40.084Z,15.13
2018-04-12T03:45:20.614Z,15.03
2018-04-12T03:46:01.142Z,15.11
2018-04-12T03:46:41.647Z,15.19
2018-04-12T03:47:22.166Z,15.16
2018-04-12T03:48:02.684Z,15.19
2018-04-12T03:50:16.009Z,15.09
2018-04-12T03:50:56.485Z,15.06
2018-04-12T03:51:36.989Z,14.88
2018-04-12T03:52:17.554Z,14.94
2018-04-12T03:52:58.029Z,14.86
2018-04-12T03:53:38.552Z,14.81
2018-04-12T03:54:19.064Z,14.86
2018-04-12T03:54:59.595Z,14.94
2018-04-12T03:55:40.106Z,14.83
2018-04-12T03:56:20.653Z,14.91
2018-04-12T03:57:01.162Z,14.84
2018-04-12T03:57:41.687Z,14.89
2018-04-12T03:58:22.213Z,15.01
2018-04-12T03:59:02.763Z,15.01
2018-04-12T03:59:43.249Z,15.02
2018-04-12T04:00:23.750Z,15.01
2018-04-12T04:01:04.267Z,14.99
2018-04-12T04:01:44.796Z,14.88
2018-04-12T04:02:25.295Z,14.91
2018-04-12T04:03:05.816Z,14.98
2018-04-12T04:03:46.346Z,15.03
2018-04-12T04:04:26.857Z,14.98
2018-04-12T04:05:07.360Z,15.01
2018-04-12T04:05:47.889Z,15.03
2018-04-12T04:06:28.420Z,14.96
2018-04-12T04:07:08.930Z,15.06
2018-04-12T04:07:49.471Z,15.02
2018-04-12T04:08:30.021Z,15.07
2018-04-12T04:09:10.560Z,15.07
2018-04-12T04:09:51.127Z,15.13
2018-04-12T04:10:31.617Z,15.01
2018-04-12T04:11:12.099Z,15.03
2018-04-12T04:11:52.619Z,15.01
2018-04-12T04:12:33.145Z,15.03
2018-04-12T04:13:13.668Z,15.02
2018-04-12T04:13:54.191Z,15.02
2018-04-12T04:14:34.686Z,15.03
2018-04-12T04:15:15.211Z,15.03
2018-04-12T04:15:55.748Z,14.99
2018-04-12T04:16:36.326Z,15.01
2018-04-12T04:17:16.889Z,15.02
2018-04-12T04:17:57.401Z,15.06
2018-04-12T04:18:37.922Z,14.98
2018-04-12T04:19:18.437Z,14.99
2018-04-12T04:19:59.045Z,15.02
2018-04-12T04:20:41.530Z,15.03
2018-04-12T04:21:22.033Z,14.99
2018-04-12T04:22:02.545Z,15.03
2018-04-12T04:22:43.059Z,15.09
2018-04-12T04:23:23.573Z,14.98
2018-04-12T04:24:04.091Z,15.03
2018-04-12T04:24:44.622Z,14.96
2018-04-12T04:25:25.140Z,14.99
2018-04-12T04:26:05.664Z,14.99
2018-04-12T04:26:46.208Z,14.98
2018-04-12T04:27:26.879Z,14.98
2018-04-12T04:28:07.397Z,15.09
2018-04-12T04:28:47.920Z,15.06
2018-04-12T04:29:28.441Z,15.03
2018-04-12T04:30:08.970Z,15.06
2018-04-12T04:30:49.486Z,15.09
2018-04-12T04:31:30.027Z,15.1
2018-04-12T04:32:10.543Z,15.03
2018-04-12T04:32:51.068Z,15.02
2018-04-12T04:33:31.583Z,14.94
2018-04-12T04:34:12.120Z,14.99
2018-04-12T04:34:52.638Z,15.03
2018-04-12T04:35:33.151Z,15.06
2018-04-12T04:36:13.664Z,15.1
2018-04-12T04:36:54.181Z,15.13
2018-04-12T04:37:34.704Z,14.94
2018-04-12T04:38:15.208Z,15.06
2018-04-12T04:38:55.714Z,15.02
2018-04-12T04:39:36.231Z,14.91
2018-04-12T04:40:16.756Z,14.84
2018-04-12T04:40:57.272Z,15.03
2018-04-12T04:41:37.783Z,15.01
2018-04-12T04:42:18.316Z,14.95
2018-04-12T04:42:58.822Z,15.03
2018-04-12T04:43:39.351Z,15.07
2018-04-12T04:44:19.873Z,15.06
2018-04-12T04:45:00.476Z,15.06
2018-04-12T04:45:40.943Z,15.07
2018-04-12T04:46:22.550Z,15.09
2018-04-12T04:47:03.061Z,15.1
2018-04-12T04:47:43.571Z,15.06
2018-04-12T04:48:24.085Z,14.96
2018-04-12T04:49:04.613Z,14.95
2018-04-12T04:49:45.108Z,14.94
2018-04-12T04:50:25.656Z,15.01
2018-04-12T04:51:06.166Z,14.99
2018-04-12T04:51:46.665Z,15.07
2018-04-12T04:52:27.184Z,14.95
2018-04-12T04:53:07.704Z,15.06
2018-04-12T04:53:48.211Z,15.07
2018-04-12T04:54:28.712Z,15.03
2018-04-12T04:55:09.233Z,15.09
2018-04-12T04:55:49.744Z,15.06
2018-04-12T04:56:30.285Z,15.06
2018-04-12T04:57:10.759Z,15.01
2018-04-12T04:57:51.287Z,15.13
2018-04-12T04:58:31.812Z,15.06
2018-04-12T04:59:12.329Z,15.03
2018-04-12T04:59:52.840Z,14.95
2018-04-12T05:00:33.378Z,15.09
2018-04-12T05:01:13.920Z,15.02
2018-04-12T05:01:54.429Z,15.01
2018-04-12T05:02:34.928Z,15.01
2018-04-12T05:03:15.447Z,15.07
2018-04-12T05:03:56.001Z,15.1
2018-04-12T05:04:37.181Z,15.16
2018-04-12T05:05:17.027Z,15.16
2018-04-12T05:05:57.560Z,15.27
2018-04-12T05:06:38.107Z,15.23
2018-04-12T05:07:18.636Z,15.13
2018-04-12T05:07:59.147Z,15.2
2018-04-12T05:08:39.671Z,15.2
2018-04-12T05:09:20.197Z,15.32
2018-04-12T05:10:00.705Z,15.19
2018-04-12T05:10:41.239Z,15.32
2018-04-12T05:11:21.729Z,15.32
2018-04-12T05:12:02.246Z,15.38
2018-04-12T05:12:42.747Z,15.44
2018-04-12T05:13:23.288Z,15.44
2018-04-12T05:14:03.811Z,15.39
2018-04-12T05:14:44.352Z,15.32
2018-04-12T05:15:24.900Z,15.32
2018-04-12T05:16:05.368Z,15.32
2018-04-12T05:16:45.883Z,15.39
2018-04-12T05:17:26.392Z,15.38
2018-04-12T05:18:06.894Z,15.41
2018-04-12T05:18:47.405Z,15.49
2018-04-12T05:19:27.937Z,15.49
2018-04-12T05:20:08.450Z,15.51
2018-04-12T05:20:48.953Z,15.41
2018-04-12T05:21:29.475Z,15.44
2018-04-12T05:22:10.000Z,15.39
2018-04-12T05:22:50.528Z,15.44
2018-04-12T05:23:31.049Z,15.51
2018-04-12T05:24:11.580Z,15.53
2018-04-12T05:24:52.064Z,15.51
2018-04-12T05:25:32.590Z,15.56
2018-04-12T05:26:13.117Z,15.68
2018-04-12T05:26:53.633Z,15.74
2018-04-12T05:27:34.158Z,15.72
2018-04-12T05:28:14.676Z,15.6
2018-04-12T05:28:55.201Z,15.69
2018-04-12T05:29:35.729Z,15.74
2018-04-12T05:30:16.244Z,15.76
2018-04-12T05:30:56.751Z,15.69
2018-04-12T05:31:37.258Z,15.65
2018-04-12T05:32:17.774Z,15.75
2018-04-12T05:32:58.285Z,15.83
2018-04-12T05:33:38.804Z,15.86
2018-04-12T05:34:19.314Z,15.8
2018-04-12T05:34:59.829Z,15.87
2018-04-12T05:35:40.351Z,15.68
2018-04-12T05:36:20.976Z,15.72
2018-04-12T05:37:02.093Z,15.75
2018-04-12T05:37:45.118Z,15.8
2018-04-12T05:38:31.727Z,15.84
2018-04-12T05:39:16.468Z,16.04
2018-04-12T05:40:03.020Z,15.97
2018-04-12T05:40:44.141Z,15.9
2018-04-12T05:41:39.398Z,15.86
2018-04-12T05:42:20.813Z,15.84
2018-04-12T05:43:04.903Z,15.83
2018-04-12T05:43:47.191Z,15.89
2018-04-12T05:44:31.007Z,15.94
2018-04-12T05:45:15.695Z,16.02
2018-04-12T05:46:02.051Z,16.07
2018-04-12T05:46:44.916Z,16.07
2018-04-12T05:47:26.941Z,16.17
2018-04-12T05:48:08.204Z,16.12
2018-04-12T05:48:49.166Z,16.11
2018-04-12T05:49:30.192Z,16.02
2018-04-12T05:50:14.112Z,16.11
2018-04-12T05:50:58.565Z,16.15
2018-04-12T05:51:40.755Z,16.11
2018-04-12T05:52:24.933Z,16.31
2018-04-12T05:53:09.528Z,16.42
2018-04-12T05:53:51.767Z,16.48
2018-04-12T05:54:36.645Z,16.52
2018-04-12T05:55:15.416Z,16.49
2018-04-12T05:55:58.935Z,16.39
2018-04-12T05:56:40.445Z,16.46
2018-04-12T05:57:25.694Z,16.61
2018-04-12T05:58:08.961Z,16.66
2018-04-12T05:58:49.434Z,16.67
2018-04-12T05:59:29.900Z,16.68
2018-04-12T06:00:10.444Z,16.81
2018-04-12T06:00:51.055Z,16.81
2018-04-12T06:01:31.640Z,16.75
2018-04-12T06:02:12.195Z,16.82
2018-04-12T06:02:53.174Z,16.82
2018-04-12T06:03:33.713Z,16.88
2018-04-12T06:04:14.308Z,16.86
2018-04-12T06:04:55.046Z,16.97
2018-04-12T06:05:35.771Z,17.11
2018-04-12T06:06:16.676Z,17.07
2018-04-12T06:06:57.379Z,17.14
2018-04-12T06:07:38.022Z,17.25
2018-04-12T06:08:18.595Z,17.33
2018-04-12T06:08:59.196Z,17.22
2018-04-12T06:09:39.967Z,17.22
2018-04-12T06:10:20.846Z,17.21
2018-04-12T06:11:01.399Z,17.08
2018-04-12T06:11:42.246Z,17.11
2018-04-12T06:12:25.730Z,17.18
2018-04-12T06:14:20.568Z,17.4
2018-04-12T06:15:03.051Z,17.38
2018-04-12T06:15:46.050Z,17.31
2018-04-12T06:16:28.811Z,17.28
2018-04-12T06:17:09.546Z,17.33
2018-04-12T06:17:53.282Z,17.43
2018-04-12T06:18:34.535Z,17.4
2018-04-12T06:19:15.891Z,17.36
2018-04-12T06:21:36.500Z,17.49
2018-04-12T06:22:25.380Z,17.48
2018-04-12T06:23:08.459Z,17.51
2018-04-12T06:23:53.170Z,17.54
2018-04-12T06:24:37.788Z,17.51
2018-04-12T06:25:20.102Z,17.44
2018-04-12T06:26:02.109Z,17.51
2018-04-12T06:26:43.475Z,17.55
2018-04-12T06:27:24.957Z,17.55
2018-04-12T06:28:07.721Z,17.56
2018-04-12T06:28:48.866Z,17.58
2018-04-12T06:29:31.286Z,17.58
2018-04-12T06:30:13.096Z,17.63
2018-04-12T06:30:55.273Z,17.49
2018-04-12T06:31:37.176Z,17.63
2018-04-12T06:32:18.405Z,17.64
2018-04-12T06:32:58.949Z,17.41
2018-04-12T06:33:39.445Z,17.37
2018-04-12T06:34:20.149Z,17.48
2018-04-12T06:35:00.577Z,17.49
2018-04-12T06:35:41.288Z,17.55
2018-04-12T06:36:21.824Z,17.54
2018-04-12T06:37:02.294Z,17.52
2018-04-12T06:37:42.961Z,17.59
2018-04-12T06:38:23.547Z,17.71
2018-04-12T06:39:04.079Z,17.7
2018-04-12T06:39:44.591Z,17.72
2018-04-12T06:40:25.093Z,17.7
2018-04-12T06:41:05.605Z,17.71
2018-04-12T06:41:47.784Z,17.59
2018-04-12T06:42:28.316Z,17.62
2018-04-12T06:45:13.751Z,17.55
2018-04-12T06:45:54.285Z,17.54
2018-04-12T06:46:34.827Z,17.54
2018-04-12T06:47:15.358Z,17.48
2018-04-12T06:47:55.877Z,17.41
2018-04-12T06:48:36.438Z,17.49
2018-04-12T06:49:16.948Z,17.4
2018-04-12T06:49:57.498Z,17.41
2018-04-12T06:50:37.990Z,17.38
2018-04-12T06:51:18.512Z,17.46
2018-04-12T06:51:59.037Z,17.44
2018-04-12T06:52:39.562Z,17.46
2018-04-12T06:53:20.217Z,17.58
2018-04-12T06:54:00.834Z,17.56
2018-04-12T06:54:41.352Z,17.62
2018-04-12T06:55:22.002Z,17.71
2018-04-12T06:56:02.527Z,17.79
2018-04-12T06:56:43.064Z,17.7
2018-04-12T06:57:23.605Z,17.71
2018-04-12T06:58:04.136Z,17.78
2018-04-12T06:58:44.643Z,17.87
2018-04-12T06:59:25.161Z,17.71
2018-04-12T07:00:05.665Z,17.78
2018-04-12T07:00:46.183Z,17.99
2018-04-12T07:01:26.715Z,18.03
2018-04-12T07:02:07.228Z,18.11
2018-04-12T07:02:47.740Z,18.14
2018-04-12T07:03:28.553Z,17.96
2018-04-12T07:04:09.072Z,18.1
2018-04-12T07:04:49.601Z,18.27
2018-04-12T07:05:30.172Z,18.27
2018-04-12T07:06:10.685Z,18.32
2018-04-12T07:06:51.924Z,18.37
2018-04-12T07:07:32.497Z,18.37
2018-04-12T07:08:13.018Z,18.42
2018-04-12T07:08:53.997Z,18.45
2018-04-12T07:09:34.547Z,18.47
2018-04-12T07:10:15.064Z,18.55
2018-04-12T07:12:08.177Z,18.69
2018-04-12T07:12:48.716Z,18.9
2018-04-12T07:13:29.186Z,19
2018-04-12T07:14:09.705Z,19.07
2018-04-12T07:14:50.270Z,19.13
2018-04-12T07:15:30.795Z,19.19
2018-04-12T07:16:11.324Z,19.32
2018-04-12T07:16:51.833Z,19.41
2018-04-12T07:17:32.347Z,19.36
2018-04-12T07:18:12.870Z,19.4
2018-04-12T07:18:53.386Z,19.55
2018-04-12T07:19:33.930Z,19.61
2018-04-12T07:20:14.445Z,19.66
2018-04-12T07:20:54.998Z,19.56
2018-04-12T07:21:35.516Z,19.73
2018-04-12T07:22:16.042Z,19.71
2018-04-12T07:22:56.557Z,19.87
2018-04-12T07:23:37.089Z,19.88
2018-04-12T07:24:17.664Z,19.96
2018-04-12T07:24:58.184Z,19.99
2018-04-12T07:25:38.863Z,20.08
2018-04-12T07:26:19.254Z,20.08
2018-04-12T07:26:59.794Z,20.16
2018-04-12T07:27:40.300Z,19.96
2018-04-12T07:28:20.846Z,19.84
2018-04-12T07:29:01.449Z,19.69
2018-04-12T07:29:41.878Z,19.63
2018-04-12T07:30:22.389Z,19.5
2018-04-12T07:31:02.908Z,19.48
2018-04-12T07:31:43.425Z,19.4
2018-04-12T07:32:23.943Z,19.56
2018-04-12T07:33:04.476Z,19.65
2018-04-12T07:33:44.993Z,19.63
2018-04-12T07:34:25.512Z,19.65
2018-04-12T07:35:06.091Z,19.74
2018-04-12T07:35:47.433Z,19.74
2018-04-12T07:36:27.960Z,19.76
2018-04-12T07:37:08.474Z,19.84
2018-04-12T07:37:48.988Z,19.8
2018-04-12T07:38:29.537Z,19.71
2018-04-12T07:39:10.055Z,19.84
2018-04-12T07:39:51.092Z,19.77
2018-04-12T07:40:31.603Z,19.65
2018-04-12T07:41:12.132Z,19.63
2018-04-12T07:41:52.653Z,19.63
2018-04-12T07:42:33.167Z,19.47
2018-04-12T07:43:13.686Z,19.61
2018-04-12T07:43:54.202Z,19.65
2018-04-12T07:44:34.736Z,19.62
2018-04-12T07:45:15.245Z,19.76
2018-04-12T07:45:55.762Z,19.71
2018-04-12T07:46:36.292Z,19.74
2018-04-12T07:47:16.826Z,19.81
2018-04-12T07:47:57.355Z,19.74
2018-04-12T07:48:37.882Z,19.86
2018-04-12T07:49:18.398Z,19.84
2018-04-12T07:49:58.906Z,19.74
2018-04-12T07:50:39.462Z,19.76
2018-04-12T07:51:19.940Z,19.88
2018-04-12T07:52:00.427Z,19.81
2018-04-12T07:52:40.946Z,19.77
2018-04-12T07:53:21.452Z,19.66
2018-04-12T07:54:01.990Z,19.58
2018-04-12T07:54:42.504Z,19.58
2018-04-12T07:55:23.068Z,19.47
2018-04-12T07:56:03.634Z,19.48
2018-04-12T07:56:44.194Z,19.39
2018-04-12T07:57:24.666Z,19.4
2018-04-12T07:58:05.183Z,19.37
2018-04-12T07:58:45.696Z,19.33
2018-04-12T07:59:26.228Z,19.29
2018-04-12T08:00:06.742Z,19.26
2018-04-12T08:00:47.280Z,19.31
2018-04-12T08:01:27.798Z,19.36
2018-04-12T08:02:08.389Z,19.4
2018-04-12T08:02:48.837Z,19.37
2018-04-12T08:03:29.364Z,19.29
2018-04-12T08:04:09.850Z,19.41
2018-04-12T08:04:50.385Z,19.44
2018-04-12T08:05:30.910Z,19.47
2018-04-12T08:06:11.447Z,19.47
2018-04-12T08:06:51.973Z,19.56
2018-04-12T08:07:32.500Z,19.62
2018-04-12T08:08:13.023Z,19.62
2018-04-12T08:08:53.559Z,19.74
2018-04-12T08:09:34.122Z,19.8
2018-04-12T08:10:14.649Z,19.8
2018-04-12T08:10:55.185Z,19.84
2018-04-12T08:11:35.694Z,19.68
2018-04-12T08:12:16.211Z,19.74
2018-04-12T08:12:56.738Z,19.74
2018-04-12T08:13:37.990Z,19.83
2018-04-12T08:14:18.499Z,19.86
2018-04-12T08:14:59.009Z,19.91
2018-04-12T08:15:39.522Z,19.92
2018-04-12T08:16:20.119Z,19.96
2018-04-12T08:17:00.600Z,19.94
2018-04-12T08:17:41.221Z,19.99
2018-04-12T08:18:21.730Z,20.08
2018-04-12T08:19:02.270Z,20.14
2018-04-12T08:19:42.781Z,20.13
2018-04-12T08:20:23.309Z,20.28
2018-04-12T08:21:03.882Z,20.32
2018-04-12T08:21:44.420Z,20.47
2018-04-12T08:22:24.953Z,20.41
2018-04-12T08:23:05.470Z,20.41
2018-04-12T08:23:46.028Z,20.55
2018-04-12T08:24:26.650Z,20.48
2018-04-12T08:25:07.338Z,20.43
2018-04-12T08:25:47.691Z,20.55
2018-04-12T08:26:28.208Z,20.55
2018-04-12T08:27:08.718Z,20.52
2018-04-12T08:27:49.595Z,20.54
2018-04-12T08:28:30.080Z,20.62
2018-04-12T08:29:10.599Z,20.61
2018-04-12T08:29:51.131Z,20.73
2018-04-12T08:30:31.648Z,20.69
2018-04-12T08:31:12.199Z,20.69
2018-04-12T08:31:52.730Z,20.72
2018-04-12T08:32:33.253Z,20.69
2018-04-12T08:33:13.777Z,20.69
2018-04-12T08:33:54.311Z,20.5
2018-04-12T08:34:34.826Z,20.48
2018-04-12T08:35:15.376Z,20.5
2018-04-12T08:35:55.905Z,20.36
2018-04-12T08:36:36.452Z,20.32
2018-04-12T08:37:16.968Z,20.31
2018-04-12T08:37:57.497Z,20.29
2018-04-12T08:38:38.066Z,20.26
2018-04-12T08:39:18.580Z,20.13
2018-04-12T08:39:59.100Z,20.13
2018-04-12T08:40:39.620Z,19.98
2018-04-12T08:41:20.151Z,20.13
2018-04-12T08:42:00.681Z,20.13
2018-04-12T08:42:41.627Z,20.2
2018-04-12T08:43:22.653Z,20.16
2018-04-12T08:44:03.132Z,20.13
2018-04-12T08:44:44.714Z,20.21
2018-04-12T08:45:25.230Z,20.17
2018-04-12T08:46:05.787Z,20.16
2018-04-12T08:46:46.244Z,20.17
2018-04-12T08:47:26.832Z,20.14
2018-04-12T08:48:07.338Z,20.26
2018-04-12T08:48:47.793Z,20.28
2018-04-12T08:49:28.295Z,20.32
2018-04-12T08:50:08.782Z,20.35
2018-04-12T08:50:49.301Z,20.41
2018-04-12T08:51:29.870Z,20.43
2018-04-12T08:52:10.386Z,20.59
2018-04-12T08:52:50.794Z,20.5
2018-04-12T08:53:31.307Z,20.42
2018-04-12T08:54:11.821Z,20.55
2018-04-12T08:54:52.352Z,20.47